createdAt,value
2023-04-18T00:04:09.452Z,1.00
2023-04-18T00:09:12.592Z,1.27
2023-04-18T00:14:15.734Z,1.25
2023-04-18T00:19:19.200Z,1.65
2023-04-18T00:24:22.598Z,1.20
2023-04-18T00:29:25.773Z,1.35
2023-04-18T00:34:29.331Z,1.30
2023-04-18T00:39:32.417Z,1.58
2023-04-18T00:44:35.522Z,1.90
2023-04-18T00:49:38.659Z,1.98
2023-04-18T00:54:43.115Z,1.42
2023-04-18T00:59:47.566Z,2.03
2023-04-18T01:04:50.613Z,1.50
2023-04-18T01:09:54.392Z,1.70
2023-04-18T01:14:57.587Z,1.50
2023-04-18T01:20:02.272Z,2.38
2023-04-18T01:25:09.732Z,2.20
2023-04-18T01:30:13.116Z,1.83
2023-04-18T01:35:16.336Z,1.88
2023-04-18T01:40:19.433Z,2.92
2023-04-18T01:45:23.458Z,2.00
2023-04-18T01:50:26.412Z,1.88
2023-04-18T01:55:29.381Z,2.92
2023-04-18T02:00:32.413Z,2.53
2023-04-18T02:05:37.780Z,2.88
2023-04-18T02:10:44.332Z,3.03
2023-04-18T02:15:47.458Z,3.17
2023-04-18T02:20:52.282Z,2.60
2023-04-18T02:25:57.690Z,3.75
2023-04-18T02:31:01.106Z,3.72
2023-04-18T02:36:04.625Z,2.70
2023-04-18T02:41:08.063Z,3.65
2023-04-18T02:46:11.113Z,4.40
2023-04-18T02:51:14.125Z,4.97
2023-04-18T02:56:19.185Z,3.60
2023-04-18T03:01:54.430Z,4.93
2023-04-18T03:06:59.623Z,4.22
2023-04-18T03:12:05.448Z,3.72
2023-04-18T03:17:10.482Z,4.35
2023-04-18T03:22:16.992Z,3.42
2023-04-18T03:27:27.660Z,3.55
2023-04-18T03:32:34.049Z,3.33
2023-04-18T03:37:37.411Z,3.67
2023-04-18T03:42:44.175Z,4.25
2023-04-18T03:47:47.349Z,3.55
2023-04-18T03:52:52.663Z,2.78
2023-04-18T03:57:55.867Z,3.28
2023-04-18T04:03:04.003Z,2.88
2023-04-18T04:08:07.235Z,3.40
2023-04-18T04:13:10.905Z,4.30
2023-04-18T04:18:16.238Z,3.03
2023-04-18T04:23:20.475Z,2.50
2023-04-18T04:28:24.984Z,2.45
2023-04-18T04:33:33.980Z,2.42
2023-04-18T04:38:40.811Z,4.60
2023-04-18T04:43:44.573Z,1.92
2023-04-18T04:48:50.755Z,2.17
2023-04-18T04:53:54.994Z,2.17
2023-04-18T04:58:59.401Z,3.08
2023-04-18T05:04:10.498Z,2.17
2023-04-18T05:09:14.041Z,1.70
2023-04-18T05:14:18.027Z,1.83
2023-04-18T05:19:21.017Z,1.75
2023-04-18T05:24:24.024Z,1.80
2023-04-18T05:29:27.064Z,2.38
2023-04-18T05:34:30.701Z,1.98
2023-04-18T05:39:33.777Z,1.77
2023-04-18T05:44:37.397Z,1.75
2023-04-18T05:49:40.406Z,1.83
2023-04-18T05:54:43.465Z,1.77
2023-04-18T05:59:46.516Z,1.70
2023-04-18T06:04:50.174Z,1.67
2023-04-18T06:09:54.428Z,1.75
2023-04-18T06:14:57.512Z,1.80
2023-04-18T06:20:00.747Z,2.22
2023-04-18T06:25:04.135Z,1.90
2023-04-18T06:30:08.588Z,1.50
2023-04-18T06:35:11.708Z,2.05
2023-04-18T06:40:14.765Z,1.48
2023-04-18T06:45:17.940Z,1.45
2023-04-18T06:50:20.948Z,1.85
2023-04-18T06:55:23.929Z,1.92
2023-04-18T07:00:27.166Z,1.30
2023-04-18T07:05:30.258Z,1.38
2023-04-18T07:10:33.342Z,1.80
2023-04-18T07:15:36.579Z,1.10
2023-04-18T07:20:39.681Z,1.33
2023-04-18T07:25:42.666Z,1.30
2023-04-18T07:30:46.443Z,1.38
2023-04-18T07:35:50.583Z,1.70
2023-04-18T07:40:58.633Z,1.73
2023-04-18T07:46:01.887Z,1.50
2023-04-18T07:51:05.066Z,2.78
2023-04-18T07:56:08.068Z,2.60
2023-04-18T08:01:15.226Z,2.47
2023-04-18T08:06:18.371Z,2.30
2023-04-18T08:11:21.464Z,3.13
2023-04-18T08:16:24.451Z,2.67
2023-04-18T08:21:27.598Z,2.08
2023-04-18T08:26:30.617Z,2.22
2023-04-18T08:31:33.652Z,1.83
2023-04-18T08:36:36.735Z,1.90
2023-04-18T08:41:43.446Z,1.42
2023-04-18T08:46:46.734Z,2.35
2023-04-18T08:51:52.310Z,1.50
2023-04-18T09:07:17.378Z,1.20
2023-04-18T09:12:25.695Z,1.23
2023-04-18T09:17:38.183Z,1.13
2023-04-18T09:22:52.651Z,1.15
2023-04-18T09:28:01.326Z,1.20
2023-04-18T09:33:07.874Z,1.30
2023-04-18T09:38:11.125Z,1.42
2023-04-18T09:43:21.211Z,1.30
2023-04-18T09:48:24.225Z,1.75
2023-04-18T09:53:28.763Z,1.83
2023-04-18T09:58:34.594Z,0.90
2023-04-18T10:03:50.134Z,1.60
2023-04-18T10:08:55.150Z,1.08
2023-04-18T10:14:03.104Z,1.25
2023-04-18T10:19:28.754Z,1.30
2023-04-18T10:24:54.177Z,1.60
2023-04-18T10:29:57.122Z,1.30
2023-04-18T10:35:00.990Z,1.00
2023-04-18T10:40:07.873Z,1.25
2023-04-18T10:45:30.030Z,1.33
2023-04-18T10:50:33.162Z,1.90
2023-04-18T10:55:38.151Z,1.30
2023-04-18T11:00:41.262Z,1.13
2023-04-18T11:05:44.814Z,1.60
2023-04-18T11:10:58.247Z,1.40
2023-04-18T11:16:01.664Z,1.58
2023-04-18T11:21:05.004Z,1.95
2023-04-18T11:26:17.818Z,1.55
2023-04-18T11:31:23.740Z,1.63
2023-04-18T11:36:27.193Z,1.13
2023-04-18T11:41:30.196Z,1.02
2023-04-18T11:46:40.003Z,1.02
2023-04-18T11:51:46.597Z,1.20
2023-04-18T11:56:49.863Z,1.30
2023-04-18T12:02:14.694Z,1.02
2023-04-18T12:07:36.323Z,1.10
2023-04-18T12:12:52.165Z,0.80
2023-04-18T12:18:04.402Z,0.93
2023-04-18T12:23:08.776Z,1.35
2023-04-18T12:28:18.931Z,1.15
2023-04-18T12:33:22.122Z,1.15
2023-04-18T12:38:25.218Z,1.10
2023-04-18T12:43:28.252Z,1.48
2023-04-18T12:48:31.248Z,1.38
2023-04-18T12:53:34.330Z,1.40
2023-04-18T12:58:37.291Z,1.85
2023-04-18T13:03:40.574Z,1.40
2023-04-18T13:08:43.699Z,1.33
2023-04-18T13:13:46.948Z,1.58
2023-04-18T13:18:49.981Z,1.30
2023-04-18T13:23:53.046Z,1.60
2023-04-18T13:28:56.016Z,1.35
2023-04-18T13:33:59.092Z,1.23
2023-04-18T13:39:02.324Z,1.23
2023-04-18T13:44:05.388Z,1.27
2023-04-18T13:49:08.374Z,1.48
2023-04-18T13:54:15.062Z,1.15
2023-04-18T13:59:18.072Z,1.60
2023-04-18T14:04:22.779Z,1.38
2023-04-18T14:09:27.128Z,2.03
2023-04-18T14:14:30.277Z,1.60
2023-04-18T14:19:33.230Z,1.90
2023-04-18T14:24:36.765Z,1.75
2023-04-18T14:29:39.771Z,1.27
2023-04-18T14:34:43.227Z,1.38
2023-04-18T14:39:46.555Z,1.33
2023-04-18T14:44:49.570Z,1.50
2023-04-18T14:49:52.591Z,0.98
2023-04-18T14:54:55.739Z,1.52
2023-04-18T14:59:58.761Z,1.13
2023-04-18T15:05:03.856Z,1.38
2023-04-18T15:10:07.782Z,1.13
2023-04-18T15:15:11.151Z,1.25
2023-04-18T15:20:14.217Z,1.42
2023-04-18T15:25:17.537Z,1.85
2023-04-18T15:30:20.800Z,1.30
2023-04-18T15:35:23.993Z,1.70
2023-04-18T15:40:27.140Z,2.28
2023-04-18T15:45:30.798Z,2.05
2023-04-18T15:50:34.166Z,1.80
2023-04-18T15:55:37.302Z,1.85
2023-04-18T16:00:40.344Z,1.90
2023-04-18T16:05:43.432Z,2.67
2023-04-18T16:10:46.419Z,1.80
2023-04-18T16:15:49.548Z,2.17
2023-04-18T16:20:52.513Z,1.88
2023-04-18T16:25:55.576Z,2.20
2023-04-18T16:30:58.634Z,1.65
2023-04-18T16:36:04.948Z,1.95
2023-04-18T16:41:07.915Z,2.13
2023-04-18T16:46:12.254Z,1.45
2023-04-18T16:51:15.353Z,1.85
2023-04-18T16:56:18.312Z,1.42
2023-04-18T17:01:21.388Z,1.20
2023-04-18T17:06:25.053Z,2.15
2023-04-18T17:11:28.288Z,1.75
2023-04-18T17:16:31.282Z,1.52
2023-04-18T17:21:35.533Z,1.63
2023-04-18T17:26:39.614Z,1.70
2023-04-18T17:31:42.624Z,1.90
2023-04-18T17:36:45.624Z,1.40
2023-04-18T17:41:48.694Z,4.28
2023-04-18T17:46:51.681Z,1.42
2023-04-18T17:51:54.702Z,1.80
2023-04-18T17:56:58.174Z,1.48
2023-04-18T18:02:01.222Z,1.52
2023-04-18T18:07:04.520Z,1.17
2023-04-18T18:12:08.737Z,1.08
2023-04-18T18:17:11.835Z,1.10
2023-04-18T18:22:14.879Z,1.23
2023-04-18T18:27:20.528Z,1.00
2023-04-18T18:32:23.810Z,1.48
2023-04-18T18:37:27.025Z,1.52
2023-04-18T18:42:30.019Z,1.45
2023-04-18T18:47:34.543Z,1.52
2023-04-18T18:52:40.875Z,0.98
2023-04-18T18:57:43.850Z,1.25
2023-04-18T19:02:47.077Z,1.10
2023-04-18T19:07:51.717Z,1.00
2023-04-18T19:12:54.744Z,0.88
2023-04-18T19:17:57.710Z,0.93
2023-04-18T19:23:00.812Z,0.68
2023-04-18T19:28:06.079Z,1.27
2023-04-18T19:33:09.133Z,1.42
2023-04-18T19:38:12.199Z,1.38
2023-04-18T19:43:15.259Z,1.13
2023-04-18T19:48:18.184Z,1.40
2023-04-18T19:53:21.192Z,1.05
2023-04-18T19:58:45.293Z,1.77
2023-04-18T20:03:48.666Z,0.70
2023-04-18T20:08:51.804Z,1.85
2023-04-18T20:13:56.244Z,1.92
2023-04-18T20:19:18.452Z,1.38
2023-04-18T20:24:21.585Z,1.50
2023-04-18T20:29:24.680Z,1.17
2023-04-18T20:34:55.372Z,1.70
2023-04-18T20:45:37.908Z,1.20
2023-04-18T20:50:59.019Z,1.45
2023-04-18T20:56:03.440Z,1.10
2023-04-18T21:01:07.389Z,1.08
2023-04-18T21:06:10.375Z,1.00
2023-04-18T21:11:13.424Z,1.13
2023-04-18T21:16:16.479Z,1.67
2023-04-18T21:21:19.608Z,0.98
2023-04-18T21:26:41.354Z,1.30
2023-04-18T21:31:44.374Z,1.13
2023-04-18T21:36:47.371Z,0.85
2023-04-18T21:41:50.466Z,1.20
2023-04-18T21:46:53.490Z,0.90
2023-04-18T21:51:56.672Z,0.88
2023-04-18T21:56:59.752Z,1.05
2023-04-18T22:02:21.655Z,1.08
2023-04-18T22:07:24.923Z,1.60
2023-04-18T22:12:27.876Z,1.90
2023-04-18T22:17:31.832Z,0.82
2023-04-18T22:22:56.576Z,1.42
2023-04-18T22:27:59.723Z,0.95
2023-04-18T22:33:02.791Z,1.08
2023-04-18T22:38:06.499Z,1.38
2023-04-18T22:43:09.585Z,1.17
2023-04-18T22:48:13.626Z,0.90
2023-04-18T22:53:17.246Z,1.77
2023-04-18T22:58:20.153Z,1.67
2023-04-18T23:03:23.190Z,1.85
2023-04-18T23:08:26.367Z,1.63
2023-04-18T23:13:29.310Z,1.25
2023-04-18T23:18:32.255Z,1.92
2023-04-18T23:23:35.179Z,1.83
2023-04-18T23:28:38.261Z,1.50
2023-04-18T23:33:41.209Z,1.30
2023-04-18T23:38:44.297Z,1.33
2023-04-18T23:43:47.241Z,1.60
2023-04-18T23:48:50.191Z,1.30
2023-04-18T23:53:53.057Z,1.65
2023-04-18T23:58:56.072Z,2.95
